createdAt,value
2022-07-29T00:00:43.139Z,1018.24
2022-07-29T00:01:43.181Z,1016.69
2022-07-29T00:02:43.051Z,993.33
2022-07-29T00:03:43.148Z,998.51
2022-07-29T00:04:43.089Z,962.64
2022-07-29T00:05:42.985Z,986.02
2022-07-29T00:06:42.972Z,997.02
2022-07-29T00:07:43.000Z,1001.49
2022-07-29T00:08:42.957Z,1016.69
2022-07-29T00:09:51.620Z,991.12
2022-07-29T00:10:42.919Z,1000.75
2022-07-29T00:11:42.926Z,987.47
2022-07-29T00:12:42.901Z,991.86
2022-07-29T00:13:45.384Z,973.84
2022-07-29T00:14:42.885Z,974.54
2022-07-29T00:15:42.888Z,981.68
2022-07-29T00:16:42.949Z,956.46
2022-07-29T00:17:42.833Z,924.14
2022-07-29T00:18:42.830Z,944.99
2022-07-29T00:19:45.528Z,946.33
2022-07-29T00:20:42.789Z,942.33
2022-07-29T00:21:42.808Z,957.14
2022-07-29T00:22:42.779Z,950.35
2022-07-29T00:23:42.757Z,969.61
2022-07-29T00:24:42.737Z,964.72
2022-07-29T00:25:42.731Z,959.89
2022-07-29T00:26:42.710Z,949.68
2022-07-29T00:27:42.704Z,949.68
2022-07-29T00:28:42.677Z,939.69
2022-07-29T00:29:42.660Z,926.05
2022-07-29T00:30:42.675Z,922.23
2022-07-29T00:31:42.699Z,926.05
2022-07-29T00:32:42.625Z,934.45
2022-07-29T00:33:42.615Z,934.45
2022-07-29T00:34:42.610Z,925.41
2022-07-29T00:35:42.578Z,915.30
2022-07-29T00:36:42.564Z,899.33
2022-07-29T00:37:42.613Z,890.36
2022-07-29T00:38:42.544Z,880.42
2022-07-29T00:39:42.528Z,870.13
2022-07-29T00:40:43.264Z,866.19
2022-07-29T00:41:42.551Z,851.33
2022-07-29T00:42:42.506Z,840.65
2022-07-29T00:43:42.514Z,843.83
2022-07-29T00:44:42.496Z,823.60
2022-07-29T00:45:42.513Z,832.30
2022-07-29T00:46:42.514Z,835.93
2022-07-29T00:47:42.422Z,830.23
2022-07-29T00:48:42.573Z,834.89
2022-07-29T00:49:42.422Z,836.45
2022-07-29T00:50:42.375Z,820.07
2022-07-29T00:51:42.478Z,827.16
2022-07-29T00:52:42.353Z,821.58
2022-07-29T00:53:42.371Z,826.65
2022-07-29T00:54:44.170Z,811.14
2022-07-29T00:55:42.318Z,787.31
2022-07-29T00:56:42.298Z,784.08
2022-07-29T00:57:42.309Z,775.46
2022-07-29T00:58:42.289Z,767.03
2022-07-29T00:59:42.272Z,748.69
2022-07-29T01:00:42.290Z,744.53
2022-07-29T01:01:42.340Z,738.78
2022-07-29T01:02:42.231Z,734.72
2022-07-29T01:03:42.224Z,737.96
2022-07-29T01:04:42.212Z,733.91
2022-07-29T01:05:50.020Z,735.53
2022-07-29T01:06:42.210Z,733.11
2022-07-29T01:07:42.186Z,722.82
2022-07-29T01:08:42.168Z,706.79
2022-07-29T01:09:46.076Z,706.04
2022-07-29T01:10:42.153Z,686.49
2022-07-29T01:11:42.122Z,683.69
2022-07-29T01:12:42.104Z,678.83
2022-07-29T01:13:42.171Z,664.68
2022-07-29T01:14:42.139Z,656.21
2022-07-29T01:15:49.110Z,660.09
2022-07-29T01:16:42.125Z,649.21
2022-07-29T01:17:52.454Z,642.97
2022-07-29T01:18:42.067Z,632.04
2022-07-29T01:19:42.165Z,620.90
2022-07-29T01:20:42.049Z,615.76
2022-07-29T01:21:42.347Z,605.18
2022-07-29T01:22:42.020Z,599.22
2022-07-29T01:23:42.141Z,601.38
2022-07-29T01:24:42.018Z,611.82
2022-07-29T01:25:42.047Z,604.63
2022-07-29T01:26:42.076Z,603.00
2022-07-29T01:27:41.968Z,597.62
2022-07-29T01:28:42.087Z,584.57
2022-07-29T01:29:41.951Z,574.53
2022-07-29T01:30:41.962Z,564.84
2022-07-29T01:31:55.196Z,545.95
2022-07-29T01:32:41.852Z,541.97
2022-07-29T01:33:41.826Z,543.73
2022-07-29T01:34:41.881Z,542.85
2022-07-29T01:35:41.803Z,537.18
2022-07-29T01:36:41.783Z,528.70
2022-07-29T01:37:41.799Z,525.38
2022-07-29T01:38:41.901Z,517.66
2022-07-29T01:39:41.758Z,512.50
2022-07-29T01:40:41.734Z,507.07
2022-07-29T01:41:41.747Z,502.88
2022-07-29T01:42:41.680Z,507.84
2022-07-29T01:43:41.717Z,500.25
2022-07-29T01:44:41.657Z,501.75
2022-07-29T01:45:41.763Z,497.27
2022-07-29T01:46:41.654Z,495.80
2022-07-29T01:47:41.674Z,486.43
2022-07-29T01:48:41.719Z,490.71
2022-07-29T01:49:41.661Z,492.88
2022-07-29T01:50:41.573Z,489.28
2022-07-29T01:51:41.645Z,485.37
2022-07-29T01:52:41.548Z,493.97
2022-07-29T01:53:41.539Z,496.17
2022-07-29T01:54:41.532Z,497.64
2022-07-29T01:55:41.548Z,506.30
2022-07-29T01:56:41.515Z,505.92
2022-07-29T01:57:41.520Z,513.68
2022-07-29T01:58:41.478Z,519.67
2022-07-29T01:59:41.481Z,517.26
2022-07-29T02:00:43.635Z,515.27
2022-07-29T02:01:41.574Z,505.54
2022-07-29T02:02:41.446Z,501.37
2022-07-29T02:03:41.456Z,507.45
2022-07-29T02:04:41.517Z,498.76
2022-07-29T02:05:41.493Z,488.92
2022-07-29T02:06:41.400Z,485.02
2022-07-29T02:07:41.372Z,490.35
2022-07-29T02:08:41.453Z,485.37
2022-07-29T02:09:41.359Z,480.49
2022-07-29T02:10:41.372Z,481.19
2022-07-29T02:11:41.365Z,477.07
2022-07-29T02:12:41.323Z,469.05
2022-07-29T02:13:41.293Z,460.65
2022-07-29T02:14:41.271Z,459.07
2022-07-29T02:15:41.285Z,456.57
2022-07-29T02:16:41.242Z,461.29
2022-07-29T02:17:41.234Z,455.02
2022-07-29T02:18:41.214Z,445.03
2022-07-29T02:19:41.198Z,442.68
2022-07-29T02:20:41.240Z,443.85
2022-07-29T02:21:41.167Z,445.03
2022-07-29T02:22:41.159Z,448.91
2022-07-29T02:23:50.991Z,450.12
2022-07-29T02:24:41.129Z,451.64
2022-07-29T02:25:41.139Z,444.15
2022-07-29T02:26:41.117Z,442.68
2022-07-29T02:27:41.097Z,440.06
2022-07-29T02:28:41.080Z,431.55
2022-07-29T02:29:41.067Z,427.41
2022-07-29T02:30:41.044Z,417.03
2022-07-29T02:31:41.119Z,419.38
2022-07-29T02:32:41.071Z,417.55
2022-07-29T02:33:41.043Z,415.73
2022-07-29T02:34:40.991Z,418.86
2022-07-29T02:35:40.994Z,413.42
2022-07-29T02:36:40.994Z,407.14
2022-07-29T02:37:40.956Z,418.33
2022-07-29T02:38:40.942Z,415.22
2022-07-29T02:39:40.953Z,406.39
2022-07-29T02:40:40.915Z,405.65
2022-07-29T02:41:40.903Z,406.15
2022-07-29T02:42:40.897Z,397.23
2022-07-29T02:43:40.891Z,391.88
2022-07-29T02:44:40.857Z,387.57
2022-07-29T02:45:40.881Z,389.37
2022-07-29T02:46:40.867Z,388.24
2022-07-29T02:47:41.881Z,382.26
2022-07-29T02:48:40.860Z,371.05
2022-07-29T02:49:40.816Z,365.69
2022-07-29T02:50:40.780Z,360.89
2022-07-29T02:51:41.394Z,349.40
2022-07-29T02:52:40.784Z,343.21
2022-07-29T02:53:40.793Z,334.49
2022-07-29T02:54:40.728Z,332.47
2022-07-29T02:55:40.742Z,332.47
2022-07-29T02:56:40.732Z,334.83
2022-07-29T02:57:54.631Z,329.48
2022-07-29T02:58:40.697Z,330.14
2022-07-29T02:59:40.661Z,327.84
2022-07-29T03:00:40.643Z,323.33
2022-07-29T03:01:40.719Z,316.19
2022-07-29T03:02:40.639Z,314.68
2022-07-29T03:03:40.612Z,311.70
2022-07-29T03:04:40.618Z,307.34
2022-07-29T03:05:40.616Z,312.00
2022-07-29T03:06:40.597Z,310.82
2022-07-29T03:07:40.557Z,308.20
2022-07-29T03:08:40.566Z,308.49
2022-07-29T03:09:40.547Z,304.22
2022-07-29T03:10:40.514Z,304.78
2022-07-29T03:11:46.146Z,302.82
2022-07-29T03:12:40.520Z,306.20
2022-07-29T03:13:40.479Z,309.65
2022-07-29T03:14:40.476Z,309.07
2022-07-29T03:15:40.517Z,310.23
2022-07-29T03:16:41.375Z,304.50
2022-07-29T03:17:40.459Z,305.91
2022-07-29T03:18:40.409Z,309.94
2022-07-29T03:19:40.419Z,302.82
2022-07-29T03:20:40.389Z,300.88
2022-07-29T03:21:40.371Z,300.06
2022-07-29T03:22:40.384Z,301.16
2022-07-29T03:23:40.343Z,303.38
2022-07-29T03:24:40.368Z,303.65
2022-07-29T03:25:40.327Z,309.07
2022-07-29T03:26:40.300Z,303.10
2022-07-29T03:27:40.290Z,305.63
2022-07-29T03:28:40.276Z,305.91
2022-07-29T03:29:40.282Z,309.65
2022-07-29T03:30:40.285Z,314.38
2022-07-29T03:31:40.282Z,313.48
2022-07-29T03:32:40.216Z,322.07
2022-07-29T03:33:40.210Z,321.75
2022-07-29T03:34:40.196Z,321.75
2022-07-29T03:35:40.216Z,324.29
2022-07-29T03:36:40.181Z,331.80
2022-07-29T03:37:40.178Z,331.13
2022-07-29T03:38:40.176Z,326.86
2022-07-29T03:39:40.135Z,325.89
2022-07-29T03:40:40.127Z,326.86
2022-07-29T03:41:40.187Z,326.54
2022-07-29T03:42:40.102Z,330.14
2022-07-29T03:43:48.962Z,328.82
2022-07-29T03:44:40.096Z,327.18
2022-07-29T03:45:40.055Z,328.82
2022-07-29T03:46:40.118Z,331.80
2022-07-29T03:47:50.082Z,334.16
2022-07-29T03:48:40.028Z,334.83
2022-07-29T03:49:40.018Z,335.86
2022-07-29T03:50:39.979Z,334.83
2022-07-29T03:51:40.009Z,332.13
2022-07-29T03:52:39.974Z,331.13
2022-07-29T03:53:39.966Z,327.51
2022-07-29T03:54:39.949Z,334.16
2022-07-29T03:55:39.945Z,335.52
2022-07-29T03:56:39.943Z,333.82
2022-07-29T03:57:39.914Z,326.54
2022-07-29T03:58:39.874Z,324.61
2022-07-29T03:59:39.866Z,327.18
2022-07-29T04:00:39.878Z,331.13
2022-07-29T04:01:39.942Z,332.80
2022-07-29T04:02:39.842Z,338.27
2022-07-29T04:03:39.897Z,334.49
2022-07-29T04:04:39.813Z,331.80
2022-07-29T04:05:39.807Z,323.01
2022-07-29T04:06:39.787Z,327.84
2022-07-29T04:07:39.778Z,324.92
2022-07-29T04:08:39.928Z,336.89
2022-07-29T04:09:39.754Z,340.37
2022-07-29T04:10:39.739Z,346.46
2022-07-29T04:12:03.369Z,349.03
2022-07-29T04:12:39.699Z,345.01
2022-07-29T04:13:39.678Z,349.03
2022-07-29T04:14:39.681Z,350.14
2022-07-29T04:15:39.666Z,348.66
2022-07-29T04:16:39.655Z,348.66
2022-07-29T04:17:39.644Z,350.52
2022-07-29T04:18:39.641Z,350.14
2022-07-29T04:19:39.594Z,349.03
2022-07-29T04:20:39.590Z,349.40
2022-07-29T04:21:39.586Z,349.77
2022-07-29T04:22:39.565Z,340.02
2022-07-29T04:23:47.549Z,347.92
2022-07-29T04:24:42.866Z,348.66
2022-07-29T04:25:39.547Z,352.01
2022-07-29T04:26:39.510Z,352.01
2022-07-29T04:27:39.513Z,348.29
2022-07-29T04:28:39.482Z,338.62
2022-07-29T04:29:56.780Z,333.82
2022-07-29T04:30:39.483Z,341.08
2022-07-29T04:31:39.507Z,344.29
2022-07-29T04:32:39.456Z,348.66
2022-07-29T04:33:39.416Z,350.52
2022-07-29T04:34:39.432Z,339.67
2022-07-29T04:35:45.814Z,335.86
2022-07-29T04:36:39.788Z,336.20
2022-07-29T04:37:39.361Z,351.26
2022-07-29T04:38:39.381Z,360.10
2022-07-29T04:39:39.365Z,358.14
2022-07-29T04:40:39.326Z,363.67
2022-07-29T04:41:39.326Z,366.51
2022-07-29T04:42:46.536Z,377.00
2022-07-29T04:43:39.313Z,380.73
2022-07-29T04:44:39.692Z,395.12
2022-07-29T04:45:39.275Z,401.76
2022-07-29T04:46:39.297Z,423.36
2022-07-29T04:47:39.274Z,421.76
2022-07-29T04:48:39.312Z,437.18
2022-07-29T04:49:39.221Z,420.96
2022-07-29T04:50:39.204Z,427.14
2022-07-29T04:51:39.183Z,449.82
2022-07-29T04:52:39.187Z,451.03
2022-07-29T04:53:39.190Z,462.24
2022-07-29T04:54:39.146Z,474.37
2022-07-29T04:55:39.255Z,490.35
2022-07-29T04:56:39.124Z,495.43
2022-07-29T04:57:39.128Z,486.79
2022-07-29T04:58:39.115Z,486.79
2022-07-29T04:59:39.093Z,483.27
2022-07-29T05:00:39.068Z,473.36
2022-07-29T05:01:39.119Z,478.09
2022-07-29T05:02:39.108Z,483.62
2022-07-29T05:03:39.032Z,484.67
2022-07-29T05:04:39.040Z,467.08
2022-07-29T05:05:39.011Z,469.38
2022-07-29T05:06:38.992Z,469.70
2022-07-29T05:07:38.975Z,460.65
2022-07-29T05:08:38.975Z,447.71
2022-07-29T05:09:38.946Z,460.34
2022-07-29T05:10:38.943Z,449.52
2022-07-29T05:11:38.918Z,449.52
2022-07-29T05:12:38.947Z,478.43
2022-07-29T05:13:45.060Z,487.14
2022-07-29T05:14:38.890Z,504.77
2022-07-29T05:15:38.889Z,516.86
2022-07-29T05:16:38.878Z,524.55
2022-07-29T05:17:38.877Z,523.32
2022-07-29T05:18:38.832Z,530.37
2022-07-29T05:19:39.578Z,537.61
2022-07-29T05:20:38.819Z,553.16
2022-07-29T05:21:38.818Z,556.38
2022-07-29T05:22:38.798Z,555.46
2022-07-29T05:23:38.765Z,548.63
2022-07-29T05:24:38.766Z,547.73
2022-07-29T05:25:43.607Z,544.61
2022-07-29T05:26:38.758Z,531.21
2022-07-29T05:27:38.730Z,535.46
2022-07-29T05:28:38.719Z,533.76
2022-07-29T05:29:44.943Z,539.35
2022-07-29T05:30:38.719Z,555.00
2022-07-29T05:31:38.694Z,569.64
2022-07-29T05:32:38.650Z,573.06
2022-07-29T05:33:38.636Z,589.72
2022-07-29T05:34:38.635Z,590.76
2022-07-29T05:35:38.619Z,596.55
2022-07-29T05:36:38.614Z,591.80
2022-07-29T05:37:38.577Z,584.06
2022-07-29T05:38:38.582Z,584.57
2022-07-29T05:39:48.467Z,579.51
2022-07-29T05:40:38.547Z,574.04
2022-07-29T05:41:38.565Z,560.11
2022-07-29T05:42:38.534Z,556.38
2022-07-29T05:43:38.512Z,544.17
2022-07-29T05:44:38.490Z,534.61
2022-07-29T05:45:49.947Z,558.71
2022-07-29T05:46:38.566Z,564.84
2022-07-29T05:47:38.451Z,561.99
2022-07-29T05:48:38.491Z,536.75
2022-07-29T05:49:38.433Z,534.18
2022-07-29T05:50:38.473Z,547.73
2022-07-29T05:51:38.562Z,566.27
2022-07-29T05:52:38.397Z,574.04
2022-07-29T05:53:38.397Z,587.65
2022-07-29T05:54:38.409Z,603.00
2022-07-29T05:55:38.329Z,620.32
2022-07-29T05:56:38.321Z,639.90
2022-07-29T05:57:38.335Z,640.51
2022-07-29T05:58:38.316Z,629.07
2022-07-29T05:59:38.307Z,640.51
2022-07-29T06:00:38.268Z,649.84
2022-07-29T06:01:38.327Z,666.66
2022-07-29T06:02:38.266Z,662.05
2022-07-29T06:03:38.262Z,670.00
2022-07-29T06:04:38.287Z,688.61
2022-07-29T06:05:38.202Z,712.05
2022-07-29T06:06:38.249Z,733.91
2022-07-29T06:07:38.172Z,713.57
2022-07-29T06:08:38.199Z,730.71
2022-07-29T06:09:38.146Z,737.15
2022-07-29T06:10:38.136Z,746.93
2022-07-29T06:11:38.147Z,782.25
2022-07-29T06:12:38.122Z,822.59
2022-07-29T06:13:38.108Z,848.10
2022-07-29T06:14:38.123Z,856.78
2022-07-29T06:15:38.092Z,860.08
2022-07-29T06:16:38.165Z,862.85
2022-07-29T06:17:38.050Z,869.57
2022-07-29T06:18:38.082Z,906.63
2022-07-29T06:19:38.084Z,928.62
2022-07-29T06:20:38.010Z,943.00
2022-07-29T06:21:42.079Z,939.03
2022-07-29T06:22:37.987Z,931.20
2022-07-29T06:23:37.973Z,941.67
2022-07-29T06:24:37.980Z,943.00
2022-07-29T06:25:37.983Z,993.33
2022-07-29T06:26:39.966Z,1019.79
2022-07-29T06:27:38.001Z,1036.35
2022-07-29T06:28:37.899Z,1047.69
2022-07-29T06:29:37.895Z,1059.29
2022-07-29T06:30:37.931Z,1043.61
2022-07-29T06:31:37.899Z,1052.63
2022-07-29T06:32:42.709Z,1073.72
2022-07-29T06:33:37.925Z,1111.11
2022-07-29T06:34:37.826Z,1129.85
2022-07-29T06:35:41.953Z,1147.26
2022-07-29T06:36:37.967Z,1167.25
2022-07-29T06:37:37.812Z,1160.17
2022-07-29T06:38:42.914Z,1176.47
2022-07-29T06:39:37.769Z,1192.17
2022-07-29T06:40:37.797Z,1199.64
2022-07-29T06:41:37.752Z,1221.51
2022-07-29T06:42:37.721Z,1197.50
2022-07-29T06:43:50.604Z,1218.18
2022-07-29T06:44:37.700Z,1196.43
2022-07-29T06:45:37.696Z,1218.18
2022-07-29T06:46:37.884Z,1228.23
2022-07-29T06:47:37.653Z,1218.18
2022-07-29T06:48:37.691Z,1203.95
2022-07-29T06:49:37.618Z,1236.16
2022-07-29T06:50:37.634Z,1252.34
2022-07-29T06:51:37.613Z,1202.87
2022-07-29T06:52:37.624Z,1195.36
2022-07-29T06:53:37.570Z,1233.89
2022-07-29T06:54:37.558Z,1258.21
2022-07-29T06:55:37.567Z,1268.94
2022-07-29T06:56:39.492Z,1248.83
2022-07-29T06:57:37.616Z,1261.77
2022-07-29T06:58:37.514Z,1262.96
2022-07-29T06:59:37.506Z,1268.94
2022-07-29T07:00:37.562Z,1302.23
2022-07-29T07:01:37.586Z,1318.90
2022-07-29T07:02:37.515Z,1325.42
2022-07-29T07:03:37.506Z,1309.87
2022-07-29T07:04:37.614Z,1252.34
2022-07-29T07:05:37.451Z,1259.40
2022-07-29T07:06:37.465Z,1313.72
2022-07-29T07:07:37.479Z,1332.01
2022-07-29T07:08:37.482Z,1295.94
2022-07-29T07:09:40.362Z,1298.45
2022-07-29T07:10:37.411Z,1259.40
2022-07-29T07:11:37.377Z,1271.35
2022-07-29T07:12:37.368Z,1299.71
2022-07-29T07:13:37.312Z,1320.20
2022-07-29T07:14:37.337Z,1338.66
2022-07-29T07:15:38.854Z,1371.55
2022-07-29T07:16:37.328Z,1346.73
2022-07-29T07:17:37.257Z,1313.72
2022-07-29T07:18:37.255Z,1312.44
2022-07-29T07:19:37.266Z,1324.11
2022-07-29T07:20:37.221Z,1333.33
2022-07-29T07:21:37.220Z,1338.66
2022-07-29T07:22:39.060Z,1312.44
2022-07-29T07:23:37.227Z,1317.60
2022-07-29T07:24:37.217Z,1360.41
2022-07-29T07:25:37.163Z,1345.38
2022-07-29T07:26:37.141Z,1341.34
2022-07-29T07:27:37.120Z,1299.71
2022-07-29T07:28:37.118Z,1245.35
2022-07-29T07:29:37.113Z,1267.74
2022-07-29T07:30:37.101Z,1317.60
2022-07-29T07:31:37.213Z,1332.01
2022-07-29T07:32:37.111Z,1344.03
2022-07-29T07:33:37.070Z,1370.14
2022-07-29T07:34:37.055Z,1378.60
2022-07-29T07:35:37.022Z,1333.33
2022-07-29T07:36:37.016Z,1324.11
2022-07-29T07:37:36.997Z,1380.02
2022-07-29T07:38:37.013Z,1428.57
2022-07-29T07:39:36.995Z,1437.77
2022-07-29T07:40:36.975Z,1419.49
2022-07-29T07:41:36.942Z,1424.02
2022-07-29T07:42:36.953Z,1422.51
2022-07-29T07:43:36.951Z,1392.93
2022-07-29T07:44:57.310Z,1428.57
2022-07-29T07:45:36.963Z,1447.08
2022-07-29T07:46:37.015Z,1466.08
2022-07-29T07:47:36.893Z,1467.69
2022-07-29T07:48:36.897Z,1469.30
2022-07-29T07:49:36.863Z,1496.37
2022-07-29T07:50:36.867Z,1537.58
2022-07-29T07:51:36.815Z,1576.47
2022-07-29T07:52:36.805Z,1587.68
2022-07-29T07:53:36.800Z,1613.48
2022-07-29T07:54:36.783Z,1665.63
2022-07-29T07:56:00.448Z,1709.18
2022-07-29T07:56:36.756Z,1755.07
2022-07-29T07:57:36.745Z,1839.40
2022-07-29T07:58:36.732Z,1828.10
2022-07-29T07:59:36.729Z,1876.75
2022-07-29T08:00:36.739Z,1899.36
2022-07-29T08:01:47.889Z,1930.83
2022-07-29T08:02:36.735Z,1910.19
2022-07-29T08:03:36.680Z,1939.22
2022-07-29T08:04:36.675Z,2007.49
2022-07-29T08:05:36.643Z,2071.10
2022-07-29T08:06:36.649Z,2140.57
2022-07-29T08:07:36.602Z,2191.33
2022-07-29T08:08:36.645Z,2171.80
2022-07-29T08:09:36.605Z,2164.78
2022-07-29T08:10:36.594Z,2288.64
2022-07-29T08:11:37.747Z,2312.34
2022-07-29T08:12:36.563Z,2276.98
2022-07-29T08:13:36.542Z,2209.40
2022-07-29T08:14:36.554Z,2189.54
2022-07-29T08:15:36.502Z,2171.80
2022-07-29T08:16:36.538Z,2184.19
2022-07-29T08:17:36.495Z,2209.40
2022-07-29T08:18:36.465Z,2211.22
2022-07-29T08:19:36.454Z,2227.76
2022-07-29T08:20:36.442Z,2185.97
2022-07-29T08:21:36.598Z,2250.21
2022-07-29T08:22:36.432Z,2220.38
2022-07-29T08:23:46.494Z,2202.14
2022-07-29T08:24:36.397Z,2255.89
2022-07-29T08:25:38.579Z,2259.70
2022-07-29T08:26:36.364Z,2224.07
2022-07-29T08:27:44.352Z,2273.11
2022-07-29T08:28:36.358Z,2254.00
2022-07-29T08:29:36.336Z,2318.34
2022-07-29T08:30:36.317Z,2278.91
2022-07-29T08:31:36.416Z,2322.36
2022-07-29T08:32:53.258Z,2344.71
2022-07-29T08:33:36.310Z,2350.88
2022-07-29T08:34:36.255Z,2202.14
2022-07-29T08:35:36.510Z,2282.79
2022-07-29T08:36:36.252Z,2302.41
2022-07-29T08:37:36.243Z,2363.31
2022-07-29T08:38:36.240Z,2386.46
2022-07-29T08:39:36.265Z,2405.75
2022-07-29T08:40:36.175Z,2429.74
2022-07-29T08:41:36.176Z,2479.19
2022-07-29T08:42:36.169Z,2454.21
2022-07-29T08:43:36.153Z,2470.05
2022-07-29T08:44:36.140Z,2483.78
2022-07-29T08:45:36.147Z,2472.32
2022-07-29T08:46:36.116Z,2440.80
2022-07-29T08:47:36.118Z,2390.72
2022-07-29T08:48:36.078Z,2384.34
2022-07-29T08:49:36.090Z,2414.41
2022-07-29T08:50:36.065Z,2511.72
2022-07-29T08:51:36.060Z,2523.54
2022-07-29T08:52:36.049Z,2523.54
2022-07-29T08:53:36.016Z,2502.33
2022-07-29T08:54:36.011Z,2483.78
2022-07-29T08:55:36.024Z,2431.94
2022-07-29T08:56:35.979Z,2397.14
2022-07-29T08:57:37.260Z,2454.21
2022-07-29T08:58:37.138Z,2476.89
2022-07-29T08:59:35.964Z,2497.67
2022-07-29T09:00:35.976Z,2554.81
2022-07-29T09:01:45.142Z,2535.48
2022-07-29T09:02:35.924Z,2514.07
2022-07-29T09:03:36.017Z,2497.67
2022-07-29T09:04:35.893Z,2509.36
2022-07-29T09:05:40.603Z,2525.92
2022-07-29T09:06:35.900Z,2533.08
2022-07-29T09:07:35.835Z,2567.05
2022-07-29T09:08:35.820Z,2584.38
2022-07-29T09:09:35.828Z,2576.92
2022-07-29T09:10:35.811Z,2601.94
2022-07-29T09:11:35.789Z,2596.90
2022-07-29T09:12:38.053Z,2661.37
2022-07-29T09:13:35.800Z,2707.07
2022-07-29T09:14:35.745Z,2751.54
2022-07-29T09:15:35.736Z,2848.03
2022-07-29T09:16:52.244Z,2922.57
2022-07-29T09:17:35.775Z,2994.41
2022-07-29T09:18:35.706Z,2951.54
2022-07-29T09:19:35.707Z,2987.74
2022-07-29T09:20:35.696Z,3016.32
2022-07-29T09:21:35.716Z,3014.62
2022-07-29T09:22:40.077Z,3048.92
2022-07-29T09:23:35.680Z,3061.11
2022-07-29T09:24:35.621Z,3061.11
2022-07-29T09:25:35.633Z,3071.63
2022-07-29T09:26:35.617Z,3140.01
2022-07-29T09:27:35.626Z,3156.66
2022-07-29T09:28:35.594Z,3156.66
2022-07-29T09:29:36.371Z,3200.00
2022-07-29T09:30:35.554Z,3177.24
2022-07-29T09:31:35.655Z,3173.48
2022-07-29T09:32:35.520Z,3256.38
2022-07-29T09:33:35.566Z,3260.34
2022-07-29T09:34:35.516Z,3262.32
2022-07-29T09:35:35.496Z,3318.89
2022-07-29T09:36:35.477Z,3296.43
2022-07-29T09:37:35.491Z,3379.57
2022-07-29T09:38:35.469Z,3356.29
2022-07-29T09:39:35.483Z,3364.72
2022-07-29T09:40:35.444Z,3383.84
2022-07-29T09:41:35.421Z,3460.30
2022-07-29T09:42:35.424Z,3480.52
2022-07-29T09:43:35.414Z,3496.41
2022-07-29T09:44:35.389Z,3467.01
2022-07-29T09:45:35.505Z,3411.84
2022-07-29T09:46:35.439Z,3435.90
2022-07-29T09:47:35.396Z,3471.50
2022-07-29T09:48:35.340Z,3487.31
2022-07-29T09:49:35.336Z,3444.73
2022-07-29T09:50:35.323Z,3478.26
2022-07-29T09:51:38.514Z,3442.52
2022-07-29T09:52:35.323Z,3431.50
2022-07-29T09:53:35.318Z,3524.00
2022-07-29T09:54:35.289Z,3528.64
2022-07-29T09:55:35.263Z,3597.31
2022-07-29T09:56:35.396Z,3661.20
2022-07-29T09:57:35.432Z,3722.22
2022-07-29T09:58:35.299Z,3711.91
2022-07-29T09:59:35.374Z,3748.25
2022-07-29T10:00:35.471Z,3729.99
2022-07-29T10:01:35.251Z,3616.73
2022-07-29T10:02:35.469Z,3626.52
2022-07-29T10:03:35.217Z,3616.73
2022-07-29T10:04:35.224Z,3624.07
2022-07-29T10:05:36.101Z,3580.49
2022-07-29T10:06:35.256Z,3638.83
2022-07-29T10:07:35.236Z,3549.67
2022-07-29T10:08:35.139Z,3578.10
2022-07-29T10:09:35.138Z,3688.92
2022-07-29T10:10:35.086Z,3732.59
2022-07-29T10:11:48.172Z,3745.63
2022-07-29T10:12:35.079Z,3668.72
2022-07-29T10:13:35.279Z,3607.00
2022-07-29T10:14:35.123Z,3517.06
2022-07-29T10:15:35.191Z,3462.53
2022-07-29T10:16:35.248Z,3500.98
2022-07-29T10:17:35.430Z,3500.98
2022-07-29T10:18:35.134Z,3494.13
2022-07-29T10:19:34.980Z,3480.52
2022-07-29T10:20:35.030Z,3561.46
2022-07-29T10:21:36.627Z,3590.09
2022-07-29T10:22:52.343Z,3599.73
2022-07-29T10:23:46.094Z,3602.15
2022-07-29T10:24:35.043Z,3616.73
2022-07-29T10:25:34.966Z,3542.63
2022-07-29T10:26:35.057Z,3535.62
2022-07-29T10:27:34.980Z,3487.31
2022-07-29T10:28:34.914Z,3478.26
2022-07-29T10:29:34.880Z,3580.49
2022-07-29T10:30:34.866Z,3602.15
2022-07-29T10:31:34.908Z,3636.36
2022-07-29T10:32:34.886Z,3631.44
2022-07-29T10:33:34.833Z,3648.74
2022-07-29T10:34:34.895Z,3743.02
2022-07-29T10:35:34.857Z,3704.22
2022-07-29T10:36:34.974Z,3694.00
2022-07-29T10:37:35.345Z,3653.72
2022-07-29T10:38:34.758Z,3587.68
2022-07-29T10:39:44.380Z,3530.96
2022-07-29T10:40:34.741Z,3604.57
2022-07-29T10:41:36.327Z,3585.28
2022-07-29T10:42:34.893Z,3626.52
2022-07-29T10:43:34.689Z,3663.71
2022-07-29T10:44:34.667Z,3727.40
2022-07-29T10:45:34.687Z,3790.66
2022-07-29T10:46:34.726Z,3790.66
2022-07-29T10:47:35.466Z,3834.05
2022-07-29T10:48:34.624Z,3872.83
2022-07-29T10:49:34.641Z,3761.40
2022-07-29T10:50:34.610Z,3785.31
2022-07-29T10:51:34.587Z,3814.95
2022-07-29T10:52:34.598Z,3825.84
2022-07-29T10:53:34.588Z,3809.52
2022-07-29T10:54:34.553Z,3881.25
2022-07-29T10:55:34.548Z,3906.71
2022-07-29T10:56:34.548Z,3845.05
2022-07-29T10:57:53.510Z,3895.35
2022-07-29T10:58:34.519Z,3955.72
2022-07-29T10:59:36.426Z,3923.86
2022-07-29T11:00:34.509Z,3831.31
2022-07-29T11:01:37.725Z,3769.34
2022-07-29T11:02:41.989Z,3801.42
2022-07-29T11:03:34.509Z,3853.34
2022-07-29T11:04:34.461Z,3875.63
2022-07-29T11:05:39.971Z,3756.13
2022-07-29T11:06:34.424Z,3683.85
2022-07-29T11:07:45.993Z,3769.34
2022-07-29T11:08:34.432Z,3820.38
2022-07-29T11:09:34.979Z,3861.67
2022-07-29T11:10:34.405Z,3861.67
2022-07-29T11:11:34.971Z,3901.02
2022-07-29T11:12:34.402Z,3898.18
2022-07-29T11:13:38.393Z,3856.11
2022-07-29T11:14:34.529Z,3872.83
2022-07-29T11:15:34.569Z,3831.31
2022-07-29T11:16:34.334Z,3756.13
2022-07-29T11:17:47.088Z,3722.22
2022-07-29T11:18:34.352Z,3676.27
2022-07-29T11:19:34.384Z,3696.55
2022-07-29T11:20:34.327Z,3686.38
2022-07-29T11:21:48.845Z,3769.34
2022-07-29T11:22:34.605Z,3790.66
2022-07-29T11:23:34.743Z,3758.77
2022-07-29T11:24:34.861Z,3694.00
2022-07-29T11:25:42.867Z,3711.91
2022-07-29T11:26:34.274Z,3648.74
2022-07-29T11:27:34.239Z,3573.33
2022-07-29T11:28:34.241Z,3636.36
2022-07-29T11:29:34.219Z,3761.40
2022-07-29T11:30:34.185Z,3748.25
2022-07-29T11:31:34.322Z,3681.32
2022-07-29T11:32:34.157Z,3668.72
2022-07-29T11:33:54.316Z,3575.72
2022-07-29T11:34:34.879Z,3559.10
2022-07-29T11:35:37.976Z,3597.31
2022-07-29T11:36:34.110Z,3570.95
2022-07-29T11:37:34.109Z,3666.21
2022-07-29T11:38:34.115Z,3552.02
2022-07-29T11:39:36.738Z,3573.33
2022-07-29T11:40:34.109Z,3535.62
2022-07-29T11:41:34.081Z,3524.00
2022-07-29T11:42:34.448Z,3480.52
2022-07-29T11:43:34.059Z,3566.20
2022-07-29T11:44:34.070Z,3494.13
2022-07-29T11:45:43.862Z,3561.46
2022-07-29T11:46:34.022Z,3580.49
2022-07-29T11:47:38.229Z,3597.31
2022-07-29T11:48:34.840Z,3266.30
2022-07-29T11:49:34.125Z,3347.91
2022-07-29T11:50:33.989Z,3290.36
2022-07-29T11:51:33.988Z,3356.29
2022-07-29T11:52:33.978Z,3302.53
2022-07-29T11:53:33.978Z,3280.29
2022-07-29T11:54:33.937Z,3302.53
2022-07-29T11:55:34.012Z,3403.17
2022-07-29T11:56:33.911Z,3411.84
2022-07-29T11:57:37.226Z,3394.55
2022-07-29T11:58:33.927Z,3458.06
2022-07-29T11:59:35.189Z,3519.37
2022-07-29T12:00:33.859Z,3526.31
2022-07-29T12:01:33.964Z,3533.29
2022-07-29T12:02:37.490Z,3431.50
2022-07-29T12:03:35.709Z,3442.52
2022-07-29T12:04:33.828Z,3442.52
2022-07-29T12:05:36.928Z,3505.56
2022-07-29T12:06:33.825Z,3407.50
2022-07-29T12:07:35.169Z,3418.37
2022-07-29T12:08:33.853Z,3473.75
2022-07-29T12:09:40.153Z,3498.69
2022-07-29T12:10:33.842Z,3451.38
2022-07-29T12:11:33.787Z,3405.34
2022-07-29T12:12:33.782Z,3379.57
2022-07-29T12:13:37.507Z,3248.48
2022-07-29T12:14:33.721Z,3276.28
2022-07-29T12:15:46.220Z,3329.19
2022-07-29T12:16:33.823Z,3364.72
2022-07-29T12:17:33.742Z,3347.91